sensor_id;sensor_type;location;lat;lon;timestamp;pressure;altitude;pressure_sealevel;temperature;humidity
16094;BME280;8151;47.824;12.092;2023-10-08T00:01:10;97068.16;;;18.07;55.50
16094;BME280;8151;47.824;12.092;2023-10-08T00:03:40;97073.50;;;18.07;55.47
16094;BME280;8151;47.824;12.092;2023-10-08T00:06:16;97070.81;;;18.07;55.53
16094;BME280;8151;47.824;12.092;2023-10-08T00:08:48;97078.44;;;18.10;55.71
16094;BME280;8151;47.824;12.092;2023-10-08T00:11:17;97082.16;;;18.09;55.69
16094;BME280;8151;47.824;12.092;2023-10-08T00:13:46;97081.91;;;18.04;55.95
16094;BME280;8151;47.824;12.092;2023-10-08T00:16:16;97072.88;;;18.05;55.90
16094;BME280;8151;47.824;12.092;2023-10-08T00:18:45;97086.91;;;18.07;55.91
16094;BME280;8151;47.824;12.092;2023-10-08T00:21:20;97060.75;;;18.09;55.47
16094;BME280;8151;47.824;12.092;2023-10-08T00:23:56;97070.41;;;18.10;55.56
16094;BME280;8151;47.824;12.092;2023-10-08T00:26:29;97061.56;;;18.09;55.57
16094;BME280;8151;47.824;12.092;2023-10-08T00:29:00;97058.25;;;18.07;55.56
16094;BME280;8151;47.824;12.092;2023-10-08T00:31:34;97054.13;;;18.05;55.87
16094;BME280;8151;47.824;12.092;2023-10-08T00:34:07;97049.75;;;17.97;56.17
16094;BME280;8151;47.824;12.092;2023-10-08T00:36:39;97044.56;;;17.89;56.44
16094;BME280;8151;47.824;12.092;2023-10-08T00:39:11;97046.13;;;17.83;56.58
16094;BME280;8151;47.824;12.092;2023-10-08T00:41:42;97043.25;;;17.78;56.69
16094;BME280;8151;47.824;12.092;2023-10-08T00:44:13;97036.84;;;17.79;56.81
16094;BME280;8151;47.824;12.092;2023-10-08T00:46:43;97033.53;;;17.77;56.83
16094;BME280;8151;47.824;12.092;2023-10-08T00:49:17;97031.50;;;17.79;56.83
16094;BME280;8151;47.824;12.092;2023-10-08T00:51:53;97021.22;;;17.83;56.61
16094;BME280;8151;47.824;12.092;2023-10-08T00:54:32;97016.53;;;17.85;56.52
16094;BME280;8151;47.824;12.092;2023-10-08T00:57:12;97014.66;;;17.85;56.52
16094;BME280;8151;47.824;12.092;2023-10-08T00:59:48;97012.66;;;17.87;56.61
16094;BME280;8151;47.824;12.092;2023-10-08T01:02:21;97010.59;;;17.89;56.53
16094;BME280;8151;47.824;12.092;2023-10-08T01:04:56;97009.56;;;17.90;56.52
16094;BME280;8151;47.824;12.092;2023-10-08T01:07:25;97006.88;;;17.90;56.58
16094;BME280;8151;47.824;12.092;2023-10-08T01:09:59;97000.50;;;17.92;56.67
16094;BME280;8151;47.824;12.092;2023-10-08T01:12:33;97011.84;;;17.94;56.42
16094;BME280;8151;47.824;12.092;2023-10-08T01:15:08;96994.75;;;17.95;55.69
16094;BME280;8151;47.824;12.092;2023-10-08T01:17:43;97004.06;;;18.05;54.65
16094;BME280;8151;47.824;12.092;2023-10-08T01:20:18;96999.97;;;18.16;53.45
16094;BME280;8151;47.824;12.092;2023-10-08T01:23:03;96990.94;;;18.24;52.25
16094;BME280;8151;47.824;12.092;2023-10-08T01:25:37;96989.72;;;18.33;51.13
16094;BME280;8151;47.824;12.092;2023-10-08T01:28:06;96981.13;;;18.44;49.83
16094;BME280;8151;47.824;12.092;2023-10-08T01:30:42;96986.06;;;18.54;48.85
16094;BME280;8151;47.824;12.092;2023-10-08T01:33:14;96982.41;;;18.75;47.29
16094;BME280;8151;47.824;12.092;2023-10-08T01:35:45;96992.34;;;18.95;46.25
16094;BME280;8151;47.824;12.092;2023-10-08T01:38:17;96981.81;;;19.13;45.10
16094;BME280;8151;47.824;12.092;2023-10-08T01:40:51;96983.47;;;19.27;44.30
16094;BME280;8151;47.824;12.092;2023-10-08T01:43:19;96986.13;;;19.34;43.76
16094;BME280;8151;47.824;12.092;2023-10-08T01:45:48;96987.34;;;19.38;43.28
16094;BME280;8151;47.824;12.092;2023-10-08T01:48:19;96991.91;;;19.44;43.01
16094;BME280;8151;47.824;12.092;2023-10-08T01:50:55;96985.69;;;19.51;42.70
16094;BME280;8151;47.824;12.092;2023-10-08T01:53:29;96986.94;;;19.55;42.47
16094;BME280;8151;47.824;12.092;2023-10-08T01:55:59;96987.34;;;19.58;42.17
16094;BME280;8151;47.824;12.092;2023-10-08T01:58:28;96985.66;;;19.64;41.89
16094;BME280;8151;47.824;12.092;2023-10-08T02:00:57;96992.25;;;19.68;41.76
16094;BME280;8151;47.824;12.092;2023-10-08T02:03:27;96989.59;;;19.68;41.63
16094;BME280;8151;47.824;12.092;2023-10-08T02:05:59;96988.97;;;19.66;41.79
16094;BME280;8151;47.824;12.092;2023-10-08T02:08:34;96989.78;;;19.66;41.94
16094;BME280;8151;47.824;12.092;2023-10-08T02:11:04;96987.09;;;19.60;42.79
16094;BME280;8151;47.824;12.092;2023-10-08T02:13:32;96985.69;;;19.51;43.61
16094;BME280;8151;47.824;12.092;2023-10-08T02:16:02;96976.00;;;19.43;44.38
16094;BME280;8151;47.824;12.092;2023-10-08T02:18:40;96978.69;;;19.36;45.10
16094;BME280;8151;47.824;12.092;2023-10-08T02:21:18;96982.41;;;19.28;45.72
16094;BME280;8151;47.824;12.092;2023-10-08T02:23:58;96970.03;;;19.21;46.53
16094;BME280;8151;47.824;12.092;2023-10-08T02:26:37;96968.38;;;19.13;47.18
16094;BME280;8151;47.824;12.092;2023-10-08T02:29:15;96971.09;;;19.06;47.64
16094;BME280;8151;47.824;12.092;2023-10-08T02:31:44;96965.31;;;19.03;48.19
16094;BME280;8151;47.824;12.092;2023-10-08T02:34:12;96964.06;;;18.99;48.56
16094;BME280;8151;47.824;12.092;2023-10-08T02:36:41;96966.34;;;18.95;48.81
16094;BME280;8151;47.824;12.092;2023-10-08T02:39:12;96964.09;;;18.92;49.08
16094;BME280;8151;47.824;12.092;2023-10-08T02:41:49;96959.13;;;18.89;49.29
16094;BME280;8151;47.824;12.092;2023-10-08T02:44:17;96963.06;;;18.86;49.52
16094;BME280;8151;47.824;12.092;2023-10-08T02:46:48;96964.28;;;18.84;49.83
16094;BME280;8151;47.824;12.092;2023-10-08T02:49:20;96955.63;;;18.82;49.95
16094;BME280;8151;47.824;12.092;2023-10-08T02:51:51;96950.84;;;18.77;50.15
16094;BME280;8151;47.824;12.092;2023-10-08T02:54:22;96955.78;;;18.74;50.32
16094;BME280;8151;47.824;12.092;2023-10-08T02:56:59;96960.53;;;18.72;50.43
16094;BME280;8151;47.824;12.092;2023-10-08T02:59:32;96953.75;;;18.69;50.55
16094;BME280;8151;47.824;12.092;2023-10-08T03:02:07;96955.56;;;18.68;50.52
16094;BME280;8151;47.824;12.092;2023-10-08T03:04:42;96954.75;;;18.68;50.63
16094;BME280;8151;47.824;12.092;2023-10-08T03:07:12;96953.31;;;18.65;50.61
16094;BME280;8151;47.824;12.092;2023-10-08T03:09:51;96941.34;;;18.61;50.83
16094;BME280;8151;47.824;12.092;2023-10-08T03:12:31;96950.63;;;18.59;50.90
16094;BME280;8151;47.824;12.092;2023-10-08T03:15:00;96947.31;;;18.57;51.02
16094;BME280;8151;47.824;12.092;2023-10-08T03:17:40;96947.50;;;18.55;51.24
16094;BME280;8151;47.824;12.092;2023-10-08T03:20:16;96951.03;;;18.56;51.17
16094;BME280;8151;47.824;12.092;2023-10-08T03:22:59;96945.88;;;18.54;51.27
16094;BME280;8151;47.824;12.092;2023-10-08T03:25:31;96934.13;;;18.55;51.37
16094;BME280;8151;47.824;12.092;2023-10-08T03:28:09;96945.88;;;18.54;51.35
16094;BME280;8151;47.824;12.092;2023-10-08T03:30:40;96937.84;;;18.54;51.41
16094;BME280;8151;47.824;12.092;2023-10-08T03:33:17;96945.88;;;18.54;51.33
16094;BME280;8151;47.824;12.092;2023-10-08T03:35:51;96930.81;;;18.53;51.41
16094;BME280;8151;47.824;12.092;2023-10-08T03:38:22;96923.81;;;18.52;51.42
16094;BME280;8151;47.824;12.092;2023-10-08T03:41:07;96930.63;;;18.48;51.54
16094;BME280;8151;47.824;12.092;2023-10-08T03:43:43;96926.72;;;18.44;51.67
16094;BME280;8151;47.824;12.092;2023-10-08T03:46:20;96931.44;;;18.42;51.99
16094;BME280;8151;47.824;12.092;2023-10-08T03:48:51;96935.94;;;18.41;51.78
16094;BME280;8151;47.824;12.092;2023-10-08T03:51:19;96943.19;;;18.41;51.86
16094;BME280;8151;47.824;12.092;2023-10-08T03:53:48;96938.00;;;18.39;52.01
16094;BME280;8151;47.824;12.092;2023-10-08T03:56:28;96929.97;;;18.39;51.91
16094;BME280;8151;47.824;12.092;2023-10-08T03:59:02;96936.19;;;18.40;51.83
16094;BME280;8151;47.824;12.092;2023-10-08T04:01:41;96927.09;;;18.41;51.84
16094;BME280;8151;47.824;12.092;2023-10-08T04:04:10;96922.78;;;18.40;51.91
16094;BME280;8151;47.824;12.092;2023-10-08T04:06:42;96927.28;;;18.39;51.78
16094;BME280;8151;47.824;12.092;2023-10-08T04:09:17;96921.94;;;18.39;51.84
16094;BME280;8151;47.824;12.092;2023-10-08T04:11:52;96917.44;;;18.40;51.82
16094;BME280;8151;47.824;12.092;2023-10-08T04:14:25;96924.41;;;18.41;51.82
16094;BME280;8151;47.824;12.092;2023-10-08T04:16:55;96912.69;;;18.42;51.67
16094;BME280;8151;47.824;12.092;2023-10-08T04:19:23;96913.50;;;18.42;51.73
16094;BME280;8151;47.824;12.092;2023-10-08T04:21:55;96915.38;;;18.42;51.68
16094;BME280;8151;47.824;12.092;2023-10-08T04:24:25;96911.84;;;18.41;51.78
16094;BME280;8151;47.824;12.092;2023-10-08T04:27:03;96912.47;;;18.43;51.78
16094;BME280;8151;47.824;12.092;2023-10-08T04:29:33;96920.50;;;18.43;51.81
16094;BME280;8151;47.824;12.092;2023-10-08T04:32:04;96907.09;;;18.43;51.76
16094;BME280;8151;47.824;12.092;2023-10-08T04:34:39;96903.59;;;18.43;51.67
16094;BME280;8151;47.824;12.092;2023-10-08T04:37:14;96903.81;;;18.41;51.88
16094;BME280;8151;47.824;12.092;2023-10-08T04:39:47;96905.66;;;18.41;52.10
16094;BME280;8151;47.824;12.092;2023-10-08T04:42:26;96896.81;;;18.40;51.76
16094;BME280;8151;47.824;12.092;2023-10-08T04:44:54;96901.13;;;18.41;51.91
16094;BME280;8151;47.824;12.092;2023-10-08T04:47:25;96893.31;;;18.40;51.93
16094;BME280;8151;47.824;12.092;2023-10-08T04:50:00;96893.09;;;18.41;51.92
16094;BME280;8151;47.824;12.092;2023-10-08T04:52:31;96896.81;;;18.40;52.05
16094;BME280;8151;47.824;12.092;2023-10-08T04:55:02;96894.13;;;18.40;52.04
16094;BME280;8151;47.824;12.092;2023-10-08T04:57:41;96886.72;;;18.42;51.77
16094;BME280;8151;47.824;12.092;2023-10-08T05:00:11;96887.72;;;18.41;52.06
16094;BME280;8151;47.824;12.092;2023-10-08T05:02:42;96893.94;;;18.42;52.00
16094;BME280;8151;47.824;12.092;2023-10-08T05:05:18;96898.44;;;18.41;51.94
16094;BME280;8151;47.824;12.092;2023-10-08T05:08:05;96895.75;;;18.41;52.03
16094;BME280;8151;47.824;12.092;2023-10-08T05:10:53;96899.50;;;18.40;51.91
16094;BME280;8151;47.824;12.092;2023-10-08T05:13:45;96898.69;;;18.40;51.96
16094;BME280;8151;47.824;12.092;2023-10-08T05:16:23;96910.81;;;18.42;51.95
16094;BME280;8151;47.824;12.092;2023-10-08T05:19:16;96908.97;;;18.43;51.98
16094;BME280;8151;47.824;12.092;2023-10-08T05:22:16;96910.63;;;18.44;52.03
16094;BME280;8151;47.824;12.092;2023-10-08T05:25:11;96910.63;;;18.44;52.03
16094;BME280;8151;47.824;12.092;2023-10-08T05:27:53;96916.81;;;18.44;52.13
16094;BME280;8151;47.824;12.092;2023-10-08T05:30:47;96915.97;;;18.44;52.01
16094;BME280;8151;47.824;12.092;2023-10-08T05:33:22;96922.16;;;18.44;52.17
16094;BME280;8151;47.824;12.092;2023-10-08T05:36:05;96918.44;;;18.45;52.16
16094;BME280;8151;47.824;12.092;2023-10-08T05:38:45;96933.06;;;18.43;52.18
16094;BME280;8151;47.824;12.092;2023-10-08T05:41:28;96939.47;;;18.42;52.29
16094;BME280;8151;47.824;12.092;2023-10-08T05:43:58;96939.69;;;18.40;52.41
16094;BME280;8151;47.824;12.092;2023-10-08T05:46:45;96934.31;;;18.40;52.61
16094;BME280;8151;47.824;12.092;2023-10-08T05:49:34;96949.34;;;18.41;52.58
16094;BME280;8151;47.824;12.092;2023-10-08T05:52:20;96961.13;;;18.40;52.69
16094;BME280;8151;47.824;12.092;2023-10-08T05:55:08;96977.00;;;18.42;52.84
16094;BME280;8151;47.824;12.092;2023-10-08T05:57:53;96972.84;;;18.39;53.05
16094;BME280;8151;47.824;12.092;2023-10-08T06:00:41;96989.75;;;18.40;53.17
16094;BME280;8151;47.824;12.092;2023-10-08T06:03:30;96993.25;;;18.40;53.27
16094;BME280;8151;47.824;12.092;2023-10-08T06:06:16;96997.81;;;18.40;53.44
16094;BME280;8151;47.824;12.092;2023-10-08T06:08:50;97014.91;;;18.39;53.61
16094;BME280;8151;47.824;12.092;2023-10-08T06:11:34;97026.63;;;18.38;53.75
16094;BME280;8151;47.824;12.092;2023-10-08T06:14:12;97019.00;;;18.35;53.89
16094;BME280;8151;47.824;12.092;2023-10-08T06:16:55;97034.47;;;18.33;54.09
16094;BME280;8151;47.824;12.092;2023-10-08T06:19:42;97042.88;;;18.29;54.30
16094;BME280;8151;47.824;12.092;2023-10-08T06:22:11;97051.53;;;18.32;54.30
16094;BME280;8151;47.824;12.092;2023-10-08T06:24:39;97061.06;;;18.34;54.35
16094;BME280;8151;47.824;12.092;2023-10-08T06:27:08;97058.75;;;18.31;54.70
16094;BME280;8151;47.824;12.092;2023-10-08T06:29:40;97073.19;;;18.30;54.90
16094;BME280;8151;47.824;12.092;2023-10-08T06:32:12;97084.09;;;18.28;55.16
16094;BME280;8151;47.824;12.092;2023-10-08T06:34:42;97093.16;;;18.27;55.37
16094;BME280;8151;47.824;12.092;2023-10-08T06:37:10;97098.50;;;18.27;55.53
16094;BME280;8151;47.824;12.092;2023-10-08T06:39:43;97110.28;;;18.26;55.52
16094;BME280;8151;47.824;12.092;2023-10-08T06:42:15;97107.97;;;18.23;55.74
16094;BME280;8151;47.824;12.092;2023-10-08T06:44:45;97107.59;;;18.26;55.83
16094;BME280;8151;47.824;12.092;2023-10-08T06:47:15;97116.25;;;18.28;55.85
16094;BME280;8151;47.824;12.092;2023-10-08T06:49:47;97112.09;;;18.26;56.22
16094;BME280;8151;47.824;12.092;2023-10-08T06:52:16;97111.69;;;18.22;56.34
16094;BME280;8151;47.824;12.092;2023-10-08T06:54:46;97113.09;;;18.18;56.65
16094;BME280;8151;47.824;12.092;2023-10-08T06:57:15;97116.19;;;18.15;57.16
16094;BME280;8151;47.824;12.092;2023-10-08T06:59:47;97105.47;;;18.15;57.44
16094;BME280;8151;47.824;12.092;2023-10-08T07:02:17;97100.94;;;18.16;57.80
16094;BME280;8151;47.824;12.092;2023-10-08T07:04:48;97087.72;;;18.14;58.17
16094;BME280;8151;47.824;12.092;2023-10-08T07:07:18;97087.72;;;18.14;58.24
16094;BME280;8151;47.824;12.092;2023-10-08T07:09:47;97080.75;;;18.13;58.54
16094;BME280;8151;47.824;12.092;2023-10-08T07:12:18;97090.81;;;18.11;58.72
16094;BME280;8151;47.824;12.092;2023-10-08T07:14:51;97096.63;;;18.15;58.86
16094;BME280;8151;47.824;12.092;2023-10-08T07:17:21;97095.19;;;18.19;59.00
16094;BME280;8151;47.824;12.092;2023-10-08T07:19:56;97105.94;;;18.25;58.99
16094;BME280;8151;47.824;12.092;2023-10-08T07:22:25;97121.00;;;18.33;58.59
16094;BME280;8151;47.824;12.092;2023-10-08T07:24:56;97125.56;;;18.39;58.55
16094;BME280;8151;47.824;12.092;2023-10-08T07:27:25;97115.91;;;18.45;58.23
16094;BME280;8151;47.824;12.092;2023-10-08T07:29:59;97122.94;;;18.53;58.10
16094;BME280;8151;47.824;12.092;2023-10-08T07:32:30;97119.69;;;18.57;57.95
16094;BME280;8151;47.824;12.092;2023-10-08T07:35:00;97107.31;;;18.63;57.82
16094;BME280;8151;47.824;12.092;2023-10-08T07:37:41;97104.03;;;18.67;57.49
16094;BME280;8151;47.824;12.092;2023-10-08T07:40:12;97101.78;;;18.71;57.54
16094;BME280;8151;47.824;12.092;2023-10-08T07:42:51;97101.56;;;18.73;57.77
16094;BME280;8151;47.824;12.092;2023-10-08T07:45:20;97096.84;;;18.75;57.70
16094;BME280;8151;47.824;12.092;2023-10-08T07:47:48;97107.97;;;18.78;57.63
16094;BME280;8151;47.824;12.092;2023-10-08T07:50:18;97096.44;;;18.78;57.77
16094;BME280;8151;47.824;12.092;2023-10-08T07:52:47;97087.56;;;18.77;57.78
16094;BME280;8151;47.824;12.092;2023-10-08T07:55:17;97089.88;;;18.80;57.91
16094;BME280;8151;47.824;12.092;2023-10-08T07:57:46;97094.22;;;18.81;58.00
16094;BME280;8151;47.824;12.092;2023-10-08T08:00:16;97098.53;;;18.82;57.84
16094;BME280;8151;47.824;12.092;2023-10-08T08:02:51;97101.63;;;18.86;57.83
16094;BME280;8151;47.824;12.092;2023-10-08T08:05:25;97093.00;;;18.91;57.54
16094;BME280;8151;47.824;12.092;2023-10-08T08:07:53;97088.47;;;18.98;57.45
16094;BME280;8151;47.824;12.092;2023-10-08T08:10:24;97091.38;;;19.03;57.16
16094;BME280;8151;47.824;12.092;2023-10-08T08:12:52;97089.72;;;19.08;57.16
16094;BME280;8151;47.824;12.092;2023-10-08T08:15:24;97080.22;;;19.13;57.07
16094;BME280;8151;47.824;12.092;2023-10-08T08:17:55;97093.03;;;19.17;57.05
16094;BME280;8151;47.824;12.092;2023-10-08T08:20:26;97087.88;;;19.22;57.09
16094;BME280;8151;47.824;12.092;2023-10-08T08:23:06;97089.31;;;19.25;56.87
16094;BME280;8151;47.824;12.092;2023-10-08T08:25:38;97080.88;;;19.28;56.71
16094;BME280;8151;47.824;12.092;2023-10-08T08:28:13;97080.66;;;19.30;56.57
16094;BME280;8151;47.824;12.092;2023-10-08T08:30:47;97085.59;;;19.33;56.73
16094;BME280;8151;47.824;12.092;2023-10-08T08:33:20;97085.22;;;19.36;56.78
16094;BME280;8151;47.824;12.092;2023-10-08T08:36:01;97091.00;;;19.39;56.74
16094;BME280;8151;47.824;12.092;2023-10-08T08:38:33;97079.00;;;19.42;56.87
16094;BME280;8151;47.824;12.092;2023-10-08T08:41:02;97080.84;;;19.48;57.04
16094;BME280;8151;47.824;12.092;2023-10-08T08:43:34;97080.25;;;19.53;57.00
16094;BME280;8151;47.824;12.092;2023-10-08T08:46:04;97081.50;;;19.57;57.05
16094;BME280;8151;47.824;12.092;2023-10-08T08:48:36;97077.34;;;19.61;57.00
16094;BME280;8151;47.824;12.092;2023-10-08T08:51:07;97082.31;;;19.64;56.95
16094;BME280;8151;47.824;12.092;2023-10-08T08:53:37;97089.72;;;19.68;57.09
16094;BME280;8151;47.824;12.092;2023-10-08T08:56:07;97100.28;;;19.70;56.69
16094;BME280;8151;47.824;12.092;2023-10-08T08:58:37;97104.59;;;19.71;56.89
16094;BME280;8151;47.824;12.092;2023-10-08T09:01:07;97109.97;;;19.71;56.94
16094;BME280;8151;47.824;12.092;2023-10-08T09:03:40;97107.94;;;19.73;56.73
16094;BME280;8151;47.824;12.092;2023-10-08T09:06:10;97109.16;;;19.77;56.57
16094;BME280;8151;47.824;12.092;2023-10-08T09:08:40;97106.28;;;19.79;56.68
16094;BME280;8151;47.824;12.092;2023-10-08T09:11:15;97107.13;;;19.79;56.63
16094;BME280;8151;47.824;12.092;2023-10-08T09:13:43;97116.81;;;19.80;56.38
16094;BME280;8151;47.824;12.092;2023-10-08T09:16:14;97114.13;;;19.80;56.44
16094;BME280;8151;47.824;12.092;2023-10-08T09:18:44;97110.63;;;19.80;56.57
16094;BME280;8151;47.824;12.092;2023-10-08T09:21:16;97106.28;;;19.79;56.46
16094;BME280;8151;47.824;12.092;2023-10-08T09:23:49;97097.41;;;19.78;56.57
16094;BME280;8151;47.824;12.092;2023-10-08T09:26:18;97092.84;;;19.79;56.45
16094;BME280;8151;47.824;12.092;2023-10-08T09:28:47;97095.31;;;19.80;56.46
16094;BME280;8151;47.824;12.092;2023-10-08T09:31:17;97093.06;;;19.84;56.44
16094;BME280;8151;47.824;12.092;2023-10-08T09:33:54;97097.38;;;19.85;56.54
16094;BME280;8151;47.824;12.092;2023-10-08T09:36:24;97094.47;;;19.86;56.60
16094;BME280;8151;47.824;12.092;2023-10-08T09:39:03;97094.91;;;19.90;56.68
16094;BME280;8151;47.824;12.092;2023-10-08T09:41:33;97083.94;;;19.92;56.61
16094;BME280;8151;47.824;12.092;2023-10-08T09:44:06;97088.06;;;19.94;56.52
16094;BME280;8151;47.824;12.092;2023-10-08T09:46:40;97088.28;;;19.93;56.61
16094;BME280;8151;47.824;12.092;2023-10-08T09:49:13;97093.63;;;19.93;56.51
16094;BME280;8151;47.824;12.092;2023-10-08T09:51:43;97099.00;;;19.93;56.66
16094;BME280;8151;47.824;12.092;2023-10-08T09:54:17;97105.44;;;19.92;56.67
16094;BME280;8151;47.824;12.092;2023-10-08T09:56:47;97101.09;;;19.91;56.90
16094;BME280;8151;47.824;12.092;2023-10-08T09:59:16;97090.97;;;19.93;56.52
16094;BME280;8151;47.824;12.092;2023-10-08T10:01:47;97089.72;;;19.95;56.39
16094;BME280;8151;47.824;12.092;2023-10-08T10:04:22;97095.09;;;19.95;56.52
16094;BME280;8151;47.824;12.092;2023-10-08T10:06:54;97091.38;;;19.96;56.52
16094;BME280;8151;47.824;12.092;2023-10-08T10:09:26;97093.03;;;19.97;56.65
16094;BME280;8151;47.824;12.092;2023-10-08T10:11:55;97091.78;;;20.00;56.84
16094;BME280;8151;47.824;12.092;2023-10-08T10:14:24;97099.44;;;20.03;57.01
16094;BME280;8151;47.824;12.092;2023-10-08T10:17:09;97095.28;;;20.07;57.04
16094;BME280;8151;47.824;12.092;2023-10-08T10:19:45;97104.97;;;20.08;56.86
16094;BME280;8151;47.824;12.092;2023-10-08T10:22:27;97098.13;;;20.12;56.99
16094;BME280;8151;47.824;12.092;2023-10-08T10:24:57;97104.78;;;20.16;56.73
16094;BME280;8151;47.824;12.092;2023-10-08T10:27:27;97114.06;;;20.20;56.69
16094;BME280;8151;47.824;12.092;2023-10-08T10:30:02;97113.22;;;20.26;56.81
16094;BME280;8151;47.824;12.092;2023-10-08T10:32:35;97116.09;;;20.32;56.73
16094;BME280;8151;47.824;12.092;2023-10-08T10:35:04;97121.03;;;20.35;57.08
16094;BME280;8151;47.824;12.092;2023-10-08T10:37:40;97121.44;;;20.38;57.00
16094;BME280;8151;47.824;12.092;2023-10-08T10:40:19;97119.38;;;20.40;57.32
16094;BME280;8151;47.824;12.092;2023-10-08T10:43:06;97124.31;;;20.43;57.45
16094;BME280;8151;47.824;12.092;2023-10-08T10:45:36;97139.19;;;20.46;57.72
16094;BME280;8151;47.824;12.092;2023-10-08T10:48:07;97133.63;;;20.48;57.71
16094;BME280;8151;47.824;12.092;2023-10-08T10:50:41;97131.53;;;20.50;57.96
16094;BME280;8151;47.824;12.092;2023-10-08T10:53:18;97135.03;;;20.50;58.23
16094;BME280;8151;47.824;12.092;2023-10-08T10:55:47;97139.41;;;20.51;58.36
16094;BME280;8151;47.824;12.092;2023-10-08T10:58:26;97138.34;;;20.52;58.32
16094;BME280;8151;47.824;12.092;2023-10-08T11:00:55;97135.66;;;20.52;58.49
16094;BME280;8151;47.824;12.092;2023-10-08T11:03:31;97149.09;;;20.52;58.63
16094;BME280;8151;47.824;12.092;2023-10-08T11:06:02;97149.91;;;20.53;58.59
16094;BME280;8151;47.824;12.092;2023-10-08T11:08:43;97153.44;;;20.53;58.94
16094;BME280;8151;47.824;12.092;2023-10-08T11:11:16;97148.69;;;20.55;58.92
16094;BME280;8151;47.824;12.092;2023-10-08T11:13:45;97156.50;;;20.57;59.00
16094;BME280;8151;47.824;12.092;2023-10-08T11:16:23;97148.44;;;20.57;58.93
16094;BME280;8151;47.824;12.092;2023-10-08T11:18:53;97148.06;;;20.60;58.91
16094;BME280;8151;47.824;12.092;2023-10-08T11:21:25;97144.34;;;20.61;58.86
16094;BME280;8151;47.824;12.092;2023-10-08T11:24:00;97144.13;;;20.62;58.68
16094;BME280;8151;47.824;12.092;2023-10-08T11:26:36;97146.81;;;20.62;58.55
16094;BME280;8151;47.824;12.092;2023-10-08T11:29:07;97140.41;;;20.63;58.57
16094;BME280;8151;47.824;12.092;2023-10-08T11:31:45;97136.66;;;20.64;58.46
16094;BME280;8151;47.824;12.092;2023-10-08T11:34:14;97136.66;;;20.64;58.15
16094;BME280;8151;47.824;12.092;2023-10-08T11:36:42;97135.63;;;20.65;58.12
16094;BME280;8151;47.824;12.092;2023-10-08T11:39:22;97137.31;;;20.67;57.70
16094;BME280;8151;47.824;12.092;2023-10-08T11:41:58;97132.13;;;20.65;58.08
16094;BME280;8151;47.824;12.092;2023-10-08T11:44:32;97135.66;;;20.59;58.63
16094;BME280;8151;47.824;12.092;2023-10-08T11:47:04;97136.25;;;20.54;58.99
16094;BME280;8151;47.824;12.092;2023-10-08T11:49:40;97138.13;;;20.47;59.55
16094;BME280;8151;47.824;12.092;2023-10-08T11:52:14;97130.31;;;20.39;59.95
16094;BME280;8151;47.824;12.092;2023-10-08T11:54:45;97128.47;;;20.33;60.30
16094;BME280;8151;47.824;12.092;2023-10-08T11:57:16;97132.84;;;20.27;60.41
16094;BME280;8151;47.824;12.092;2023-10-08T11:59:50;97125.22;;;20.24;60.41
16094;BME280;8151;47.824;12.092;2023-10-08T12:02:22;97119.44;;;20.20;60.62
16094;BME280;8151;47.824;12.092;2023-10-08T12:04:51;97108.47;;;20.15;60.49
16094;BME280;8151;47.824;12.092;2023-10-08T12:07:30;97113.66;;;20.10;60.55
16094;BME280;8151;47.824;12.092;2023-10-08T12:10:00;97111.59;;;20.05;60.47
16094;BME280;8151;47.824;12.092;2023-10-08T12:12:31;97110.38;;;20.01;60.52
16094;BME280;8151;47.824;12.092;2023-10-08T12:15:03;97094.06;;;19.96;60.57
16094;BME280;8151;47.824;12.092;2023-10-08T12:17:34;97099.63;;;19.95;60.52
16094;BME280;8151;47.824;12.092;2023-10-08T12:20:07;97096.75;;;19.96;60.19
16094;BME280;8151;47.824;12.092;2023-10-08T12:22:51;97099.63;;;20.01;59.87
16094;BME280;8151;47.824;12.092;2023-10-08T12:25:21;97100.66;;;20.07;59.43
16094;BME280;8151;47.824;12.092;2023-10-08T12:27:49;97107.88;;;20.13;59.38
16094;BME280;8151;47.824;12.092;2023-10-08T12:30:18;97104.78;;;20.16;59.11
16094;BME280;8151;47.824;12.092;2023-10-08T12:32:58;97107.22;;;20.18;58.98
16094;BME280;8151;47.824;12.092;2023-10-08T12:35:28;97112.19;;;20.21;58.79
16094;BME280;8151;47.824;12.092;2023-10-08T12:37:57;97111.53;;;20.25;58.28
16094;BME280;8151;47.824;12.092;2023-10-08T12:40:27;97112.75;;;20.30;57.85
16094;BME280;8151;47.824;12.092;2023-10-08T12:43:09;97116.47;;;20.35;57.27
16094;BME280;8151;47.824;12.092;2023-10-08T12:45:37;97101.56;;;20.39;56.96
16094;BME280;8151;47.824;12.092;2023-10-08T12:48:06;97092.06;;;20.43;56.66
16094;BME280;8151;47.824;12.092;2023-10-08T12:50:35;97099.47;;;20.48;56.26
16094;BME280;8151;47.824;12.092;2023-10-08T12:53:11;97099.06;;;20.51;56.06
16094;BME280;8151;47.824;12.092;2023-10-08T12:55:41;97095.72;;;20.56;55.61
16094;BME280;8151;47.824;12.092;2023-10-08T12:58:09;97089.94;;;20.59;55.05
16094;BME280;8151;47.824;12.092;2023-10-08T13:00:38;97085.56;;;20.64;54.44
16094;BME280;8151;47.824;12.092;2023-10-08T13:03:09;97087.22;;;20.65;54.15
16094;BME280;8151;47.824;12.092;2023-10-08T13:05:43;97088.44;;;20.70;53.76
16094;BME280;8151;47.824;12.092;2023-10-08T13:08:12;97087.63;;;20.69;53.60
16094;BME280;8151;47.824;12.092;2023-10-08T13:10:42;97082.03;;;20.71;53.34
16094;BME280;8151;47.824;12.092;2023-10-08T13:13:11;97081.19;;;20.70;53.28
16094;BME280;8151;47.824;12.092;2023-10-08T13:15:41;97079.13;;;20.72;53.24
16094;BME280;8151;47.824;12.092;2023-10-08T13:18:10;97075.41;;;20.73;52.79
16094;BME280;8151;47.824;12.092;2023-10-08T13:20:38;97073.53;;;20.74;52.71
16094;BME280;8151;47.824;12.092;2023-10-08T13:23:12;97080.56;;;20.75;52.59
16094;BME280;8151;47.824;12.092;2023-10-08T13:25:41;97079.31;;;20.77;52.30
16094;BME280;8151;47.824;12.092;2023-10-08T13:28:10;97084.88;;;20.82;51.86
16094;BME280;8151;47.824;12.092;2023-10-08T13:30:39;97073.06;;;20.83;51.84
16094;BME280;8151;47.824;12.092;2023-10-08T13:33:07;97060.47;;;20.84;51.90